Brule, Wisconsin
Current Conditions -  °F | °C
As of 6:15 AM on Sunday 23 Nov 2014 (Local Time) from KOLG Reporting Station
Overcast Overcast  
Wind Chill: 38°   Ceiling: 300
Heat Index: 43°   Visibility: 1mi
Dew Point: 43°   Wind: 8mph
Humidity: 100%   Direction: 200°SSW
Pressure: 29.41"   Gusts: NA
Location:  46.55°N, 91.58°W
Report Text: KOLG 231215Z AUTO 20007KT 1SM OVC003 06/06 A2941 RMK AO1
Loading
Personal Weather Stations






























Interactive Weather Map New forecast layout! Learn more

10-Day Weather Forecast

Advertisements
Track Severe Weather on mobile